createdAt,value
2018-12-20T00:00:51.526Z,100428.06
2018-12-20T00:03:26.012Z,100420.89
2018-12-20T00:06:01.679Z,100423.00
2018-12-20T00:11:20.874Z,100420.19
2018-12-20T00:13:56.140Z,100417.28
2018-12-20T00:16:33.615Z,100421.52
2018-12-20T00:19:10.452Z,100430.08
2018-12-20T00:21:45.990Z,100430.55
2018-12-20T00:24:21.622Z,100422.48
2018-12-20T00:26:58.082Z,100427.97
2018-12-20T00:29:32.023Z,100425.46
2018-12-20T00:32:09.942Z,100430.48
2018-12-20T00:34:52.358Z,100420.72
2018-12-20T00:37:27.481Z,100429.52
2018-12-20T00:40:06.432Z,100427.41
2018-12-20T00:42:43.769Z,100423.16
2018-12-20T00:45:19.645Z,100427.81
2018-12-20T00:47:53.705Z,100421.83
2018-12-20T00:53:11.994Z,100430.23
2018-12-20T00:55:44.613Z,100429.36
2018-12-20T00:58:20.906Z,100433.18
2018-12-20T01:00:58.068Z,100427.72
2018-12-20T01:03:31.483Z,100431.53
2018-12-20T01:06:05.826Z,100436.16
2018-12-20T01:08:41.665Z,100430.60
2018-12-20T01:11:19.093Z,100435.22
2018-12-20T01:13:52.661Z,100432.64
2018-12-20T01:16:28.492Z,100446.57
2018-12-20T01:19:04.504Z,100447.37
2018-12-20T01:21:39.037Z,100430.97
2018-12-20T01:24:12.788Z,100446.53
2018-12-20T01:26:46.085Z,100448.30
2018-12-20T01:29:21.264Z,100453.00
2018-12-20T01:31:55.366Z,100448.67
2018-12-20T01:34:29.540Z,100442.25
2018-12-20T01:37:05.109Z,100446.47
2018-12-20T01:39:39.606Z,100443.55
2018-12-20T01:42:14.691Z,100443.98
2018-12-20T01:44:53.428Z,100443.16
2018-12-20T01:47:27.641Z,100437.73
2018-12-20T01:50:02.575Z,100432.67
2018-12-20T01:52:36.773Z,100427.59
2018-12-20T01:55:10.366Z,100420.36
2018-12-20T01:57:44.806Z,100420.39
2018-12-20T02:00:19.995Z,100437.30
2018-12-20T02:02:56.148Z,100433.48
2018-12-20T02:05:30.267Z,100432.11
2018-12-20T02:08:04.702Z,100432.47
2018-12-20T02:10:40.878Z,100433.74
2018-12-20T02:13:14.465Z,100429.05
2018-12-20T02:15:48.138Z,100434.55
2018-12-20T02:18:21.652Z,100430.29
2018-12-20T02:20:57.038Z,100437.48
2018-12-20T02:23:30.505Z,100432.83
2018-12-20T02:26:07.590Z,100437.48
2018-12-20T02:28:43.589Z,100429.95
2018-12-20T02:31:19.197Z,100428.19
2018-12-20T02:33:52.581Z,100430.77
2018-12-20T02:36:26.649Z,100426.47
2018-12-20T02:39:02.455Z,100431.13
2018-12-20T02:41:38.959Z,100426.83
2018-12-20T02:44:15.839Z,100426.80
2018-12-20T02:46:51.121Z,100427.67
2018-12-20T02:49:25.357Z,100420.16
2018-12-20T02:51:58.843Z,100424.33
2018-12-20T02:54:31.640Z,100423.93
2018-12-20T02:57:04.354Z,100414.59
2018-12-20T02:59:36.978Z,100415.93
2018-12-20T03:02:10.560Z,100408.23
2018-12-20T03:04:43.224Z,100417.48
2018-12-20T03:07:16.115Z,100410.77
2018-12-20T03:09:48.871Z,100408.66
2018-12-20T03:12:21.753Z,100412.80
2018-12-20T03:14:54.854Z,100416.98
2018-12-20T03:17:27.750Z,100418.21
2018-12-20T03:20:00.541Z,100417.02
2018-12-20T03:22:33.265Z,100400.95
2018-12-20T03:25:05.881Z,100405.56
2018-12-20T03:27:38.665Z,100411.02
2018-12-20T03:30:11.353Z,100411.89
2018-12-20T03:32:44.289Z,100405.02
2018-12-20T03:35:17.802Z,100409.70
2018-12-20T03:37:50.583Z,100404.66
2018-12-20T03:40:23.268Z,100409.27
2018-12-20T03:42:56.233Z,100412.64
2018-12-20T03:45:29.372Z,100408.39
2018-12-20T03:48:02.362Z,100408.75
2018-12-20T03:50:34.983Z,100404.41
2018-12-20T03:53:07.793Z,100403.63
2018-12-20T03:55:40.729Z,100409.94
2018-12-20T03:58:13.545Z,100413.25
2018-12-20T04:00:46.401Z,100405.61
2018-12-20T04:03:19.286Z,100412.37
2018-12-20T04:05:51.925Z,100406.80
2018-12-20T04:08:24.686Z,100399.98
2018-12-20T04:10:57.267Z,100394.94
2018-12-20T04:13:29.939Z,100398.84
2018-12-20T04:16:02.805Z,100400.56
2018-12-20T04:18:35.665Z,100400.99
2018-12-20T04:21:08.339Z,100406.92
2018-12-20T04:23:41.010Z,100406.45
2018-12-20T04:26:13.679Z,100400.03
2018-12-20T04:28:46.658Z,100394.51
2018-12-20T04:31:19.467Z,100389.45
2018-12-20T04:33:52.097Z,100387.34
2018-12-20T04:36:24.755Z,100383.96
2018-12-20T04:38:57.741Z,100380.06
2018-12-20T04:41:30.707Z,100384.31
2018-12-20T04:44:03.672Z,100377.64
2018-12-20T04:46:36.364Z,100374.34
2018-12-20T04:49:09.316Z,100382.34
2018-12-20T04:51:42.359Z,100381.38
2018-12-20T04:54:15.350Z,100380.50
2018-12-20T04:56:48.172Z,100388.30
2018-12-20T04:59:20.949Z,100393.71
2018-12-20T05:01:53.774Z,100387.74
2018-12-20T05:04:26.627Z,100384.75
2018-12-20T05:06:59.292Z,100388.14
2018-12-20T05:09:31.944Z,100385.59
2018-12-20T05:12:04.928Z,100390.59
2018-12-20T05:14:37.858Z,100393.89
2018-12-20T05:17:10.679Z,100397.23
2018-12-20T05:19:43.679Z,100401.44
2018-12-20T05:22:16.519Z,100392.17
2018-12-20T05:24:49.239Z,100385.91
2018-12-20T05:27:21.876Z,100383.84
2018-12-20T05:29:54.628Z,100384.33
2018-12-20T05:32:27.260Z,100377.08
2018-12-20T05:35:00.113Z,100379.49
2018-12-20T05:37:33.213Z,100384.71
2018-12-20T05:40:06.705Z,100384.15
2018-12-20T05:42:39.610Z,100388.36
2018-12-20T05:45:13.467Z,100386.22
2018-12-20T05:47:46.305Z,100386.25
2018-12-20T05:50:19.157Z,100379.05
2018-12-20T05:52:52.001Z,100379.94
2018-12-20T05:55:24.728Z,100382.09
2018-12-20T05:57:57.655Z,100369.09
2018-12-20T06:00:30.466Z,100372.91
2018-12-20T06:03:03.041Z,100369.04
2018-12-20T06:05:35.794Z,100377.11
2018-12-20T06:08:08.462Z,100372.77
2018-12-20T06:10:41.232Z,100379.54
2018-12-20T06:13:14.139Z,100380.37
2018-12-20T06:15:47.153Z,100374.52
2018-12-20T06:18:19.985Z,100373.25
2018-12-20T06:20:52.823Z,100374.05
2018-12-20T06:23:25.415Z,100377.16
2018-12-20T06:25:58.061Z,100379.58
2018-12-20T06:28:30.647Z,100385.11
2018-12-20T06:31:03.309Z,100381.30
2018-12-20T06:33:35.955Z,100381.64
2018-12-20T06:36:08.683Z,100383.27
2018-12-20T06:38:41.449Z,100387.61
2018-12-20T06:41:14.112Z,100384.36
2018-12-20T06:43:46.739Z,100385.91
2018-12-20T06:46:21.274Z,100380.33
2018-12-20T06:48:54.182Z,100384.54
2018-12-20T06:51:26.865Z,100381.50
2018-12-20T06:53:59.504Z,100388.28
2018-12-20T06:56:32.164Z,100381.42
2018-12-20T06:59:04.896Z,100382.78
2018-12-20T07:01:37.785Z,100385.20
2018-12-20T07:04:10.358Z,100381.81
2018-12-20T07:06:42.971Z,100387.31
2018-12-20T07:09:15.736Z,100394.06
2018-12-20T07:11:48.364Z,100392.01
2018-12-20T07:14:20.991Z,100389.41
2018-12-20T07:16:53.737Z,100395.30
2018-12-20T07:19:26.337Z,100398.68
2018-12-20T07:21:58.980Z,100391.88
2018-12-20T07:24:31.645Z,100388.44
2018-12-20T07:27:04.440Z,100390.55
2018-12-20T07:29:37.069Z,100385.50
2018-12-20T07:32:09.693Z,100387.16
2018-12-20T07:34:47.899Z,100387.55
2018-12-20T07:37:17.238Z,100386.29
2018-12-20T07:39:49.873Z,100390.05
2018-12-20T07:42:22.593Z,100390.85
2018-12-20T07:44:55.375Z,100395.89
2018-12-20T07:47:28.063Z,100396.29
2018-12-20T07:50:00.646Z,100386.97
2018-12-20T07:52:33.358Z,100393.00
2018-12-20T07:55:05.976Z,100391.64
2018-12-20T07:57:38.597Z,100389.52
2018-12-20T08:00:11.448Z,100387.86
2018-12-20T08:02:44.057Z,100395.10
2018-12-20T08:05:16.692Z,100395.06
2018-12-20T08:07:49.333Z,100397.17
2018-12-20T08:10:21.921Z,100401.48
2018-12-20T08:12:54.672Z,100394.80
2018-12-20T08:15:27.286Z,100404.12
2018-12-20T08:17:59.930Z,100401.17
2018-12-20T08:20:32.545Z,100407.59
2018-12-20T08:23:05.147Z,100410.13
2018-12-20T08:25:37.771Z,100412.30
2018-12-20T08:28:10.385Z,100411.10
2018-12-20T08:30:42.974Z,100411.45
2018-12-20T08:33:15.671Z,100410.63
2018-12-20T08:35:48.264Z,100418.74
2018-12-20T08:38:21.078Z,100412.86
2018-12-20T08:40:53.705Z,100415.72
2018-12-20T08:43:26.408Z,100413.65
2018-12-20T08:45:59.038Z,100418.70
2018-12-20T08:48:31.775Z,100418.22
2018-12-20T08:51:04.492Z,100419.48
2018-12-20T08:53:37.134Z,100419.45
2018-12-20T08:56:09.697Z,100418.53
2018-12-20T08:58:43.344Z,100418.70
2018-12-20T09:01:15.945Z,100424.09
2018-12-20T09:03:48.641Z,100420.28
2018-12-20T09:06:21.200Z,100424.45
2018-12-20T09:08:53.803Z,100422.70
2018-12-20T09:11:26.408Z,100418.83
2018-12-20T09:13:59.017Z,100419.61
2018-12-20T09:16:31.647Z,100423.18
2018-12-20T09:19:04.567Z,100425.28
2018-12-20T09:21:37.271Z,100423.05
2018-12-20T09:24:09.916Z,100417.11
2018-12-20T09:26:42.509Z,100419.52
2018-12-20T09:29:15.227Z,100419.44
2018-12-20T09:31:47.812Z,100417.71
2018-12-20T09:34:20.493Z,100415.91
2018-12-20T09:36:53.096Z,100417.47
2018-12-20T09:39:25.824Z,100415.65
2018-12-20T09:41:58.534Z,100415.17
2018-12-20T09:44:31.243Z,100418.55
2018-12-20T09:47:11.931Z,100419.77
2018-12-20T09:49:44.211Z,100417.90
2018-12-20T09:52:16.960Z,100412.69
2018-12-20T09:54:49.661Z,100410.08
2018-12-20T09:57:22.281Z,100411.64
2018-12-20T09:59:55.351Z,100416.24
2018-12-20T10:02:27.963Z,100409.77
2018-12-20T10:05:00.730Z,100413.14
2018-12-20T10:07:33.351Z,100411.37
2018-12-20T10:10:06.912Z,100413.75
2018-12-20T10:12:39.520Z,100412.33
2018-12-20T10:15:12.258Z,100402.48
2018-12-20T10:17:44.909Z,100399.17
2018-12-20T10:20:17.738Z,100398.30
2018-12-20T10:22:50.550Z,100395.28
2018-12-20T10:25:23.301Z,100396.34
2018-12-20T10:27:55.954Z,100398.02
2018-12-20T10:30:28.611Z,100398.28
2018-12-20T10:33:01.255Z,100393.06
2018-12-20T10:35:33.990Z,100397.64
2018-12-20T10:38:06.823Z,100395.33
2018-12-20T10:40:39.561Z,100399.51
2018-12-20T10:43:12.205Z,100394.06
2018-12-20T10:45:45.363Z,100391.02
2018-12-20T10:48:18.048Z,100391.83
2018-12-20T10:50:50.761Z,100387.80
2018-12-20T10:53:23.631Z,100380.80
2018-12-20T10:55:56.483Z,100383.36
2018-12-20T10:58:29.115Z,100384.18
2018-12-20T11:01:07.251Z,100382.85
2018-12-20T11:03:46.148Z,100380.34
2018-12-20T11:06:24.365Z,100379.97
2018-12-20T11:09:02.815Z,100375.00
2018-12-20T11:14:48.253Z,100368.34
2018-12-20T11:17:20.980Z,100373.33
2018-12-20T11:19:54.260Z,100365.87
2018-12-20T11:22:26.972Z,100358.06
2018-12-20T11:24:59.631Z,100352.20
2018-12-20T11:27:32.303Z,100356.16
2018-12-20T11:30:06.600Z,100357.11
2018-12-20T11:32:39.517Z,100357.88
2018-12-20T11:35:12.281Z,100351.58
2018-12-20T11:37:44.909Z,100350.66
2018-12-20T11:40:17.583Z,100348.94
2018-12-20T11:42:50.356Z,100341.16
2018-12-20T11:45:22.963Z,100341.30
2018-12-20T11:47:55.626Z,100341.35
2018-12-20T11:50:29.248Z,100341.17
2018-12-20T11:53:02.125Z,100339.76
2018-12-20T11:55:34.699Z,100337.53
2018-12-20T11:58:07.538Z,100329.80
2018-12-20T12:00:40.152Z,100340.41
2018-12-20T12:03:12.852Z,100336.58
2018-12-20T12:05:45.452Z,100335.86
2018-12-20T12:08:18.199Z,100329.42
2018-12-20T12:10:50.804Z,100328.66
2018-12-20T12:13:23.557Z,100326.60
2018-12-20T12:15:56.221Z,100324.90
2018-12-20T12:18:29.004Z,100325.48
2018-12-20T12:21:01.616Z,100320.72
2018-12-20T12:23:34.242Z,100322.27
2018-12-20T12:26:06.834Z,100321.11
2018-12-20T12:28:39.517Z,100323.23
2018-12-20T12:31:12.359Z,100317.92
2018-12-20T12:33:45.102Z,100320.26
2018-12-20T12:36:17.687Z,100313.80
2018-12-20T12:38:50.452Z,100315.98
2018-12-20T12:41:23.107Z,100313.45
2018-12-20T12:43:55.754Z,100312.05
2018-12-20T12:46:28.387Z,100314.59
2018-12-20T12:49:01.018Z,100314.00
2018-12-20T12:51:33.659Z,100305.01
2018-12-20T12:54:06.306Z,100318.95
2018-12-20T12:56:38.890Z,100308.66
2018-12-20T12:59:11.597Z,100309.69
2018-12-20T13:01:44.373Z,100317.55
2018-12-20T13:04:17.007Z,100314.22
2018-12-20T13:06:49.746Z,100317.30
2018-12-20T13:09:22.388Z,100316.01
2018-12-20T13:11:55.090Z,100317.53
2018-12-20T13:14:27.736Z,100326.77
2018-12-20T13:17:00.400Z,100321.56
2018-12-20T13:19:33.182Z,100323.35
2018-12-20T13:22:05.839Z,100327.42
2018-12-20T13:24:40.259Z,100323.16
2018-12-20T13:27:13.194Z,100324.45
2018-12-20T13:29:45.888Z,100322.00
2018-12-20T13:32:18.547Z,100321.30
2018-12-20T13:34:51.322Z,100325.59
2018-12-20T13:37:23.932Z,100327.42
2018-12-20T13:39:56.685Z,100329.02
2018-12-20T13:42:29.306Z,100325.13
2018-12-20T13:45:02.095Z,100321.98
2018-12-20T13:47:34.777Z,100321.54
2018-12-20T13:50:08.061Z,100322.45
2018-12-20T13:52:40.646Z,100324.87
2018-12-20T13:55:13.383Z,100319.35
2018-12-20T13:57:45.979Z,100314.34
2018-12-20T14:00:18.622Z,100316.04
2018-12-20T14:02:51.236Z,100320.66
2018-12-20T14:05:23.893Z,100315.55
2018-12-20T14:07:58.882Z,100323.70
2018-12-20T14:10:31.263Z,100319.06
2018-12-20T14:13:03.887Z,100327.63
2018-12-20T14:15:36.634Z,100327.77
2018-12-20T14:18:09.239Z,100321.83
2018-12-20T14:20:41.914Z,100324.87
2018-12-20T14:23:14.559Z,100325.39
2018-12-20T14:25:47.211Z,100326.59
2018-12-20T14:28:19.854Z,100330.77
2018-12-20T14:30:52.590Z,100330.12
2018-12-20T14:33:25.302Z,100327.42
2018-12-20T14:35:57.948Z,100328.70
2018-12-20T14:38:30.889Z,100327.64
2018-12-20T14:41:03.616Z,100323.42
2018-12-20T14:43:36.249Z,100330.17
2018-12-20T14:46:09.035Z,100321.25
2018-12-20T14:48:41.650Z,100325.97
2018-12-20T14:51:14.370Z,100331.01
2018-12-20T14:53:47.024Z,100328.22
2018-12-20T14:56:20.144Z,100327.78
2018-12-20T14:58:52.791Z,100325.66
2018-12-20T15:01:25.434Z,100322.65
2018-12-20T15:03:58.048Z,100333.30
2018-12-20T15:06:30.822Z,100331.66
2018-12-20T15:09:05.543Z,100339.36
2018-12-20T15:11:38.325Z,100337.27
2018-12-20T15:14:10.936Z,100339.50
2018-12-20T15:16:43.573Z,100338.73
2018-12-20T15:19:16.176Z,100331.60
2018-12-20T15:21:48.908Z,100338.47
2018-12-20T15:24:21.488Z,100342.88
2018-12-20T15:26:54.821Z,100339.44
2018-12-20T15:29:27.441Z,100342.38
2018-12-20T15:32:00.160Z,100344.58
2018-12-20T15:34:32.842Z,100346.34
2018-12-20T15:37:05.536Z,100346.29
2018-12-20T15:39:38.205Z,100346.80
2018-12-20T15:42:11.019Z,100343.91
2018-12-20T15:44:43.781Z,100340.20
2018-12-20T15:47:16.651Z,100335.95
2018-12-20T15:49:49.274Z,100337.70
2018-12-20T15:52:21.960Z,100346.77
2018-12-20T15:54:54.605Z,100342.44
2018-12-20T15:57:28.291Z,100339.88
2018-12-20T16:00:02.839Z,100349.63
2018-12-20T16:02:35.958Z,100344.31
2018-12-20T16:05:09.047Z,100340.78
2018-12-20T16:07:41.757Z,100342.81
2018-12-20T16:10:14.346Z,100344.09
2018-12-20T16:12:47.074Z,100338.17
2018-12-20T16:15:20.076Z,100339.42
2018-12-20T16:17:53.653Z,100339.33
2018-12-20T16:20:26.285Z,100346.70
2018-12-20T16:22:58.929Z,100349.64
2018-12-20T16:25:31.663Z,100347.48
2018-12-20T16:28:04.398Z,100346.83
2018-12-20T16:30:37.032Z,100344.72
2018-12-20T16:33:09.690Z,100340.49
2018-12-20T16:35:42.321Z,100342.71
2018-12-20T16:38:15.168Z,100347.31
2018-12-20T16:40:47.818Z,100348.98
2018-12-20T16:43:20.708Z,100350.70
2018-12-20T16:45:53.320Z,100351.09
2018-12-20T16:48:25.977Z,100348.42
2018-12-20T16:50:58.570Z,100349.36
2018-12-20T16:53:31.267Z,100345.11
2018-12-20T16:56:03.889Z,100347.20
2018-12-20T16:58:36.544Z,100351.03
2018-12-20T17:01:09.138Z,100342.60
2018-12-20T17:03:42.073Z,100352.41
2018-12-20T17:06:14.710Z,100350.88
2018-12-20T17:08:48.398Z,100352.20
2018-12-20T17:11:21.415Z,100347.93
2018-12-20T17:13:54.023Z,100355.58
2018-12-20T17:16:26.621Z,100349.72
2018-12-20T17:18:59.355Z,100345.37
2018-12-20T17:21:32.012Z,100348.49
2018-12-20T17:24:04.823Z,100345.44
2018-12-20T17:26:37.424Z,100343.27
2018-12-20T17:29:10.111Z,100343.23
2018-12-20T17:31:42.683Z,100341.05
2018-12-20T17:34:15.312Z,100348.38
2018-12-20T17:36:48.030Z,100339.95
2018-12-20T17:39:20.665Z,100342.13
2018-12-20T17:41:53.264Z,100343.89
2018-12-20T17:44:25.874Z,100344.78
2018-12-20T17:46:58.449Z,100346.22
2018-12-20T17:49:31.076Z,100341.06
2018-12-20T17:52:03.709Z,100339.88
2018-12-20T17:54:36.436Z,100335.77
2018-12-20T17:57:09.045Z,100337.59
2018-12-20T17:59:41.676Z,100338.86
2018-12-20T18:02:14.264Z,100343.58
2018-12-20T18:04:46.927Z,100347.92
2018-12-20T18:07:19.570Z,100346.70
2018-12-20T18:09:52.243Z,100343.32
2018-12-20T18:12:24.852Z,100339.60
2018-12-20T18:14:57.574Z,100342.68
2018-12-20T18:17:30.160Z,100338.95
2018-12-20T18:20:02.896Z,100339.84
2018-12-20T18:22:35.481Z,100335.66
2018-12-20T18:25:08.203Z,100343.41
2018-12-20T18:27:40.796Z,100348.49
2018-12-20T18:30:13.525Z,100344.37
2018-12-20T18:32:46.124Z,100342.52
2018-12-20T18:35:18.752Z,100344.09
2018-12-20T18:37:51.330Z,100343.17
2018-12-20T18:40:23.952Z,100338.42
2018-12-20T18:42:56.566Z,100347.34
2018-12-20T18:45:29.297Z,100345.27
2018-12-20T18:48:01.883Z,100350.77
2018-12-20T18:50:34.837Z,100348.13
2018-12-20T18:53:07.430Z,100350.22
2018-12-20T18:55:40.125Z,100347.98
2018-12-20T18:58:12.732Z,100348.03
2018-12-20T19:00:45.349Z,100346.80
2018-12-20T19:03:17.944Z,100341.35
2018-12-20T19:05:50.569Z,100337.97
2018-12-20T19:08:23.151Z,100337.93
2018-12-20T19:10:55.887Z,100329.66
2018-12-20T19:13:28.508Z,100331.62
2018-12-20T19:16:01.130Z,100331.95
2018-12-20T19:18:33.734Z,100324.90
2018-12-20T19:21:06.380Z,100333.62
2018-12-20T19:23:39.106Z,100327.63
2018-12-20T19:26:11.864Z,100330.47
2018-12-20T19:28:44.521Z,100329.14
2018-12-20T19:31:17.218Z,100326.64
2018-12-20T19:33:52.125Z,100329.52
2018-12-20T19:36:24.602Z,100325.99
2018-12-20T19:38:57.181Z,100331.74
2018-12-20T19:41:29.802Z,100325.21
2018-12-20T19:44:02.396Z,100326.97
2018-12-20T19:46:35.113Z,100328.26
2018-12-20T19:49:07.693Z,100319.27
2018-12-20T19:51:40.351Z,100321.87
2018-12-20T19:54:12.946Z,100328.69
2018-12-20T19:56:45.655Z,100330.02
2018-12-20T19:59:18.572Z,100330.22
2018-12-20T20:01:51.329Z,100329.19
2018-12-20T20:04:24.002Z,100333.70
2018-12-20T20:06:56.729Z,100329.53
2018-12-20T20:09:29.341Z,100328.92
2018-12-20T20:12:01.975Z,100331.08
2018-12-20T20:14:34.568Z,100328.03
2018-12-20T20:17:07.185Z,100324.60
2018-12-20T20:19:39.891Z,100323.33
2018-12-20T20:22:12.524Z,100320.27
2018-12-20T20:24:45.130Z,100314.24
2018-12-20T20:27:17.779Z,100312.57
2018-12-20T20:29:50.381Z,100315.40
2018-12-20T20:32:23.004Z,100312.85
2018-12-20T20:34:55.596Z,100304.32
2018-12-20T20:37:28.294Z,100307.02
2018-12-20T20:40:00.882Z,100308.41
2018-12-20T20:42:33.584Z,100304.38
2018-12-20T20:45:06.623Z,100310.68
2018-12-20T20:47:39.509Z,100305.42
2018-12-20T20:50:12.167Z,100298.28
2018-12-20T20:52:44.876Z,100299.98
2018-12-20T20:55:17.454Z,100297.49
2018-12-20T20:57:50.076Z,100301.59
2018-12-20T21:00:22.691Z,100302.48
2018-12-20T21:02:55.325Z,100302.09
2018-12-20T21:05:27.904Z,100304.59
2018-12-20T21:08:00.533Z,100304.10
2018-12-20T21:10:33.159Z,100291.73
2018-12-20T21:13:05.782Z,100299.00
2018-12-20T21:15:38.416Z,100308.58
2018-12-20T21:18:11.097Z,100303.05
2018-12-20T21:20:43.688Z,100301.81
2018-12-20T21:23:16.387Z,100294.13
2018-12-20T21:25:48.985Z,100298.71
2018-12-20T21:28:21.627Z,100299.37
2018-12-20T21:30:54.221Z,100294.55
2018-12-20T21:33:26.918Z,100291.78
2018-12-20T21:35:59.491Z,100289.36
2018-12-20T21:38:32.099Z,100289.73
2018-12-20T21:41:04.689Z,100289.68
2018-12-20T21:43:37.455Z,100290.08
2018-12-20T21:46:10.045Z,100286.58
2018-12-20T21:48:42.674Z,100292.05
2018-12-20T21:51:15.280Z,100291.00
2018-12-20T21:53:54.821Z,100286.80
2018-12-20T21:56:23.073Z,100296.67
2018-12-20T21:58:55.891Z,100294.51
2018-12-20T22:01:28.480Z,100295.39
2018-12-20T22:04:01.113Z,100296.95
2018-12-20T22:06:33.700Z,100298.66
2018-12-20T22:09:06.452Z,100293.95
2018-12-20T22:11:39.049Z,100298.98
2018-12-20T22:14:12.138Z,100297.77
2018-12-20T22:16:45.413Z,100298.66
2018-12-20T22:19:18.855Z,100294.28
2018-12-20T22:21:51.514Z,100290.79
2018-12-20T22:24:24.163Z,100296.31
2018-12-20T22:26:56.884Z,100287.13
2018-12-20T22:29:29.515Z,100289.58
2018-12-20T22:32:02.112Z,100286.02
2018-12-20T22:34:34.777Z,100289.94
2018-12-20T22:37:07.351Z,100285.57
2018-12-20T22:39:39.984Z,100281.34
2018-12-20T22:42:12.614Z,100275.49
2018-12-20T22:44:45.258Z,100273.94
2018-12-20T22:47:17.873Z,100275.59
2018-12-20T22:49:50.565Z,100278.98
2018-12-20T22:52:23.198Z,100270.34
2018-12-20T22:54:55.844Z,100265.35
2018-12-20T22:57:28.528Z,100270.78
2018-12-20T23:00:01.252Z,100271.33
2018-12-20T23:02:33.856Z,100268.67
2018-12-20T23:05:06.712Z,100261.80
2018-12-20T23:07:39.311Z,100262.26
2018-12-20T23:10:11.939Z,100260.92
2018-12-20T23:12:44.564Z,100262.58
2018-12-20T23:15:17.173Z,100260.41
2018-12-20T23:17:49.787Z,100254.55
2018-12-20T23:20:22.480Z,100258.69
2018-12-20T23:22:55.211Z,100255.14
2018-12-20T23:25:27.950Z,100252.31
2018-12-20T23:28:00.716Z,100249.20
2018-12-20T23:30:33.451Z,100245.38
2018-12-20T23:33:06.187Z,100246.10
2018-12-20T23:35:39.067Z,100244.81
2018-12-20T23:38:11.787Z,100246.22
2018-12-20T23:40:44.585Z,100244.16
2018-12-20T23:43:17.679Z,100241.63
2018-12-20T23:45:50.544Z,100245.89
2018-12-20T23:48:23.147Z,100243.77
2018-12-20T23:50:55.864Z,100237.40
2018-12-20T23:53:28.658Z,100238.58
2018-12-20T23:56:01.295Z,100237.74
2018-12-20T23:58:33.912Z,100242.34
